Time;durP1;ratioP1;P1;durP2;ratioP2;P2;SDS_P1;SDS_P2;PMS_P1;PMS_P2;Temp;Humidity;BMP_temperature;BMP_pressure;BME280_temperature;BME280_humidity;BME280_pressure;Samples;Min_cycle;Max_cycle;Signal;HPM_P1;HPM_P2
2021/11/08 00:01:14;;;;;;;7.13;1.77;;;20.00;46.80;;;;;;4919579;29;20032;-64
2021/11/08 00:03:44;;;;;;;5.72;1.65;;;20.00;46.80;;;;;;4919393;29;20052;-63
2021/11/08 00:06:11;;;;;;;4.95;1.45;;;19.90;46.90;;;;;;4919563;29;20051;-64
2021/11/08 00:08:38;;;;;;;5.38;1.73;;;19.90;46.80;;;;;;4918030;29;20035;-64
2021/11/08 00:11:05;;;;;;;5.80;1.38;;;20.00;46.80;;;;;;4919448;29;20028;-64
2021/11/08 00:13:31;;;;;;;6.20;1.60;;;19.90;46.80;;;;;;4919224;29;20031;-64
2021/11/08 00:16:17;;;;;;;5.28;1.33;;;19.90;46.80;;;;;;4919062;29;20035;-64
2021/11/08 00:18:54;;;;;;;5.78;1.55;;;19.90;46.70;;;;;;4919476;29;20055;-64
2021/11/08 00:21:21;;;;;;;6.72;1.55;;;19.90;46.80;;;;;;4919205;29;20028;-64
2021/11/08 00:23:46;;;;;;;7.35;1.90;;;19.90;46.70;;;;;;4918971;29;20032;-64
2021/11/08 00:26:12;;;;;;;4.95;1.60;;;19.90;46.70;;;;;;4918980;29;20032;-64
2021/11/08 00:28:38;;;;;;;6.05;1.50;;;20.00;46.80;;;;;;4918999;29;20020;-64
2021/11/08 00:31:04;;;;;;;5.70;1.67;;;19.90;46.70;;;;;;4918806;29;20064;-64
2021/11/08 00:33:29;;;;;;;6.32;1.95;;;19.90;46.70;;;;;;4917306;29;20028;-63
2021/11/08 00:35:59;;;;;;;4.82;1.70;;;19.90;46.70;;;;;;4919006;29;20058;-63
2021/11/08 00:38:25;;;;;;;6.30;1.85;;;19.90;46.70;;;;;;4918828;29;20064;-64
2021/11/08 00:40:51;;;;;;;5.97;1.50;;;20.00;46.70;;;;;;4918668;29;20465;-63
2021/11/08 00:43:18;;;;;;;4.32;1.33;;;19.90;46.70;;;;;;4918651;29;20050;-64
2021/11/08 00:45:43;;;;;;;5.15;1.50;;;19.90;46.70;;;;;;4918685;29;20028;-63
2021/11/08 00:48:09;;;;;;;6.60;1.90;;;19.90;46.80;;;;;;4918873;29;20080;-64
2021/11/08 00:50:35;;;;;;;4.35;1.40;;;19.90;46.70;;;;;;4918592;29;20032;-63
2021/11/08 00:53:02;;;;;;;6.68;1.58;;;19.90;46.70;;;;;;4918521;29;20115;-63
2021/11/08 00:55:30;;;;;;;6.57;1.55;;;19.90;46.70;;;;;;4918306;29;20055;-63
2021/11/08 00:57:57;;;;;;;5.97;1.48;;;19.90;46.70;;;;;;4918396;29;20393;-63
2021/11/08 01:00:29;;;;;;;6.70;1.42;;;19.90;46.70;;;;;;4918357;29;20079;-64
2021/11/08 01:02:55;;;;;;;4.95;1.50;;;19.90;46.60;;;;;;4918318;29;20016;-63
2021/11/08 01:05:21;;;;;;;6.38;1.70;;;19.90;46.60;;;;;;4918358;29;20020;-63
2021/11/08 01:07:47;;;;;;;6.10;1.75;;;19.90;46.70;;;;;;4918168;29;20168;-64
2021/11/08 01:10:16;;;;;;;5.63;1.70;;;19.90;46.70;;;;;;4918245;29;20036;-63
2021/11/08 01:12:42;;;;;;;7.40;1.95;;;19.90;46.60;;;;;;4916951;29;20028;-64
2021/11/08 01:15:09;;;;;;;7.07;1.88;;;19.90;46.70;;;;;;4918142;29;20028;-63
2021/11/08 01:17:35;;;;;;;4.50;1.58;;;19.90;46.70;;;;;;4917998;29;20028;-63
2021/11/08 01:20:02;;;;;;;5.63;1.65;;;19.90;46.70;;;;;;4918129;29;20084;-64
2021/11/08 01:22:28;;;;;;;5.78;1.60;;;19.90;46.70;;;;;;4918019;29;20032;-64
2021/11/08 01:24:55;;;;;;;5.40;1.73;;;19.90;46.70;;;;;;4918005;29;20052;-63
2021/11/08 01:27:50;;;;;;;5.15;1.40;;;19.90;46.70;;;;;;4917904;29;20020;-63
2021/11/08 01:30:23;;;;;;;6.45;1.70;;;19.90;46.70;;;;;;4916482;29;20070;-63
2021/11/08 01:33:16;;;;;;;5.88;1.50;;;19.90;46.70;;;;;;4917987;29;20106;-64
2021/11/08 01:35:43;;;;;;;5.60;1.60;;;19.90;46.70;;;;;;4917492;29;20119;-63
2021/11/08 01:38:36;;;;;;;7.68;2.03;;;19.90;46.70;;;;;;4917652;29;20543;-63
2021/11/08 01:40:58;;;;;;;5.07;1.40;;;19.90;46.70;;;;;;4917540;29;20559;-64
2021/11/08 01:43:24;;;;;;;4.28;1.52;;;19.90;46.70;;;;;;4915870;29;20052;-63
2021/11/08 01:45:49;;;;;;;5.55;1.77;;;19.90;46.70;;;;;;4917412;29;20103;-63
2021/11/08 01:48:15;;;;;;;6.03;1.73;;;19.90;46.70;;;;;;4917510;29;20020;-63
2021/11/08 01:50:43;;;;;;;6.53;1.75;;;19.90;46.70;;;;;;4917483;29;20115;-63
2021/11/08 01:53:09;;;;;;;6.05;1.70;;;19.80;46.70;;;;;;4917438;29;20024;-64
2021/11/08 01:55:35;;;;;;;6.53;1.40;;;19.90;46.70;;;;;;4917273;29;20526;-63
2021/11/08 01:58:01;;;;;;;7.95;1.92;;;19.90;46.70;;;;;;4917274;29;20047;-63
2021/11/08 02:00:28;;;;;;;4.38;1.45;;;19.90;46.60;;;;;;4917237;29;20099;-63
2021/11/08 02:02:54;;;;;;;5.78;1.42;;;19.90;46.70;;;;;;4917286;29;20446;-64
2021/11/08 02:05:20;;;;;;;5.70;2.00;;;19.90;46.70;;;;;;4917206;29;20540;-64
2021/11/08 02:07:48;;;;;;;9.00;1.98;;;19.90;46.70;;;;;;4917217;29;20115;-63
2021/11/08 02:10:16;;;;;;;6.80;2.05;;;19.90;46.70;;;;;;4917131;29;20024;-63
2021/11/08 02:12:43;;;;;;;6.13;1.77;;;19.90;46.70;;;;;;4917145;29;20532;-63
2021/11/08 02:15:13;;;;;;;5.45;1.58;;;19.90;46.60;;;;;;4917110;29;20084;-63
2021/11/08 02:17:42;;;;;;;5.95;1.48;;;19.90;46.60;;;;;;4916865;29;20496;-63
2021/11/08 02:20:28;;;;;;;6.53;1.80;;;19.90;46.70;;;;;;4917024;29;20055;-63
2021/11/08 02:22:57;;;;;;;6.07;1.60;;;19.90;46.70;;;;;;4916930;29;20563;-63
2021/11/08 02:25:25;;;;;;;7.22;1.67;;;19.90;46.60;;;;;;4916979;29;20024;-64
2021/11/08 02:27:51;;;;;;;6.63;1.92;;;19.90;46.60;;;;;;4917015;29;20480;-64
2021/11/08 02:30:19;;;;;;;7.65;1.77;;;19.90;46.60;;;;;;4916635;29;20119;-64
2021/11/08 02:32:47;;;;;;;4.65;1.20;;;19.80;46.60;;;;;;4916778;29;20032;-64
2021/11/08 02:35:16;;;;;;;8.43;2.13;;;19.90;46.60;;;;;;4916957;29;20144;-63
2021/11/08 02:37:42;;;;;;;6.70;1.85;;;19.90;46.60;;;;;;4916741;29;20044;-63
2021/11/08 02:40:18;;;;;;;7.43;1.88;;;19.90;46.60;;;;;;4916823;29;20033;-63
2021/11/08 02:42:48;;;;;;;4.93;1.63;;;19.90;46.60;;;;;;4916893;29;20515;-63
2021/11/08 02:45:14;;;;;;;6.07;1.70;;;19.90;46.60;;;;;;4916790;29;20030;-63
2021/11/08 02:47:44;;;;;;;7.80;1.60;;;19.90;46.70;;;;;;4916766;29;20035;-63
2021/11/08 02:50:12;;;;;;;5.57;1.52;;;19.90;46.60;;;;;;4916750;29;20030;-63
2021/11/08 02:52:38;;;;;;;6.35;2.40;;;19.90;46.60;;;;;;4916626;29;20028;-64
2021/11/08 02:55:05;;;;;;;5.80;1.42;;;19.90;46.70;;;;;;4917545;29;20028;-63
2021/11/08 02:57:34;;;;;;;7.32;1.95;;;19.90;46.60;;;;;;4920454;29;20032;-63
2021/11/08 03:00:01;;;;;;;8.70;2.00;;;19.90;46.60;;;;;;4920522;29;20375;-63
2021/11/08 03:02:27;;;;;;;6.00;1.60;;;19.90;46.70;;;;;;4920406;29;20571;-63
2021/11/08 03:04:54;;;;;;;6.45;1.75;;;19.90;46.60;;;;;;4920670;29;20056;-63
2021/11/08 03:07:22;;;;;;;7.40;1.70;;;19.90;46.70;;;;;;4920381;29;20460;-64
2021/11/08 03:09:54;;;;;;;6.13;1.63;;;19.90;46.60;;;;;;4919068;29;20421;-63
2021/11/08 03:12:25;;;;;;;6.20;1.80;;;19.90;46.60;;;;;;4920326;29;20038;-63
2021/11/08 03:15:12;;;;;;;7.05;1.88;;;19.90;46.70;;;;;;4920255;29;20024;-63
2021/11/08 03:17:44;;;;;;;7.30;2.47;;;19.90;46.60;;;;;;4920344;29;20040;-63
2021/11/08 03:20:16;;;;;;;5.00;1.50;;;19.80;46.60;;;;;;4920265;29;20092;-63
2021/11/08 03:22:49;;;;;;;6.75;1.65;;;19.90;46.60;;;;;;4920172;29;20035;-64
2021/11/08 03:25:22;;;;;;;4.78;1.30;;;19.80;46.60;;;;;;4920153;29;20028;-63
2021/11/08 03:27:52;;;;;;;6.50;1.40;;;19.80;46.60;;;;;;4919989;29;20028;-63
2021/11/08 03:30:22;;;;;;;5.40;1.42;;;19.80;46.60;;;;;;4919836;29;20044;-64
2021/11/08 03:32:49;;;;;;;7.63;2.08;;;19.80;46.60;;;;;;4919889;29;20024;-64
2021/11/08 03:35:20;;;;;;;6.03;1.80;;;19.80;46.60;;;;;;4919968;29;20028;-63
2021/11/08 03:37:46;;;;;;;6.70;1.70;;;19.80;46.60;;;;;;4919806;29;20047;-63
2021/11/08 03:40:22;;;;;;;5.93;1.65;;;19.80;46.60;;;;;;4919846;29;20024;-63
2021/11/08 03:42:49;;;;;;;6.68;1.73;;;19.80;46.70;;;;;;4919788;29;20036;-64
2021/11/08 03:45:15;;;;;;;6.57;1.70;;;19.80;46.60;;;;;;4919739;29;20500;-63
2021/11/08 03:47:42;;;;;;;7.22;2.03;;;19.80;46.60;;;;;;4919653;29;20380;-63
2021/11/08 03:50:09;;;;;;;6.45;1.70;;;19.80;46.60;;;;;;4919790;29;20032;-64
2021/11/08 03:52:37;;;;;;;7.43;1.90;;;19.80;46.60;;;;;;4919817;29;20380;-63
2021/11/08 03:55:04;;;;;;;5.30;1.45;;;19.80;46.60;;;;;;4919544;29;20024;-63
2021/11/08 03:57:30;;;;;;;6.47;1.80;;;19.80;46.60;;;;;;4919491;29;20130;-63
2021/11/08 03:59:56;;;;;;;6.88;1.73;;;19.80;46.60;;;;;;4919474;29;20492;-63
2021/11/08 04:02:21;;;;;;;7.82;2.13;;;19.80;46.60;;;;;;4919381;29;20050;-63
2021/11/08 04:04:48;;;;;;;6.10;1.75;;;19.80;46.60;;;;;;4919352;29;20160;-63
2021/11/08 04:07:14;;;;;;;6.18;1.98;;;19.80;46.60;;;;;;4918759;29;20020;-63
2021/11/08 04:09:40;;;;;;;6.95;2.25;;;19.80;46.60;;;;;;4919189;29;20442;-63
2021/11/08 04:12:08;;;;;;;5.70;1.65;;;19.80;46.60;;;;;;4919293;29;20488;-63
2021/11/08 04:14:34;;;;;;;5.57;1.58;;;19.80;46.60;;;;;;4919187;29;20032;-63
2021/11/08 04:17:00;;;;;;;10.05;2.13;;;19.80;46.60;;;;;;4919045;29;20042;-63
2021/11/08 04:19:29;;;;;;;7.38;1.85;;;19.80;46.60;;;;;;4919331;29;20024;-63
2021/11/08 04:21:58;;;;;;;5.80;1.73;;;19.80;46.50;;;;;;4919141;29;20048;-63
2021/11/08 04:24:24;;;;;;;6.65;2.08;;;19.80;46.60;;;;;;4918993;29;20028;-63
2021/11/08 04:26:50;;;;;;;5.90;1.70;;;19.80;46.60;;;;;;4918933;29;20032;-63
2021/11/08 04:29:15;;;;;;;6.95;1.90;;;19.80;46.60;;;;;;4919003;29;20030;-64
2021/11/08 04:31:42;;;;;;;6.13;1.40;;;19.80;46.60;;;;;;4918707;29;20412;-63
2021/11/08 04:47:12;;;;;;;6.72;1.52;;;19.70;46.50;;;;;;4918986;29;20028;-63
2021/11/08 05:32:08;;;;;;;5.57;1.60;;;19.90;46.40;;;;;;4917820;29;20119;-64
2021/11/08 05:34:35;;;;;;;6.68;1.73;;;19.90;46.30;;;;;;4917980;29;20448;-63
2021/11/08 05:37:00;;;;;;;4.50;1.50;;;20.00;46.30;;;;;;4917848;29;20111;-64
2021/11/08 05:39:26;;;;;;;4.72;1.67;;;20.00;46.30;;;;;;4916345;29;20116;-63
2021/11/08 05:41:52;;;;;;;5.90;1.70;;;20.00;46.30;;;;;;4917546;29;20028;-64
2021/11/08 05:44:17;;;;;;;8.60;2.03;;;20.00;46.20;;;;;;4917521;29;20503;-64
2021/11/08 05:46:43;;;;;;;6.88;1.50;;;20.00;46.30;;;;;;4917481;29;20024;-63
2021/11/08 05:49:09;;;;;;;6.70;1.83;;;20.00;46.20;;;;;;4916133;29;20032;-64
2021/11/08 05:51:35;;;;;;;9.77;2.22;;;20.00;46.20;;;;;;4917465;29;20091;-64
2021/11/08 05:54:00;;;;;;;5.35;1.85;;;20.10;46.20;;;;;;4916028;29;20123;-63
2021/11/08 05:56:31;;;;;;;9.30;2.17;;;20.00;46.20;;;;;;4917120;29;20452;-64
2021/11/08 06:50:59;;;;;;;7.35;1.60;;;20.10;46.10;;;;;;4917096;29;20059;-63
2021/11/08 06:53:25;;;;;;;4.95;1.50;;;20.10;46.00;;;;;;4916710;29;20055;-63
2021/11/08 06:55:53;;;;;;;7.13;2.28;;;20.10;46.10;;;;;;4916444;29;20028;-64
2021/11/08 06:58:22;;;;;;;7.38;2.00;;;20.10;46.00;;;;;;4916600;29;20491;-63
2021/11/08 07:00:48;;;;;;;9.05;2.08;;;20.10;46.10;;;;;;4916528;29;20035;-64
2021/11/08 07:03:14;;;;;;;7.38;1.75;;;20.10;46.00;;;;;;4916522;29;20101;-63
2021/11/08 07:05:40;;;;;;;8.32;1.92;;;20.10;46.00;;;;;;4916375;29;20020;-63
2021/11/08 07:08:06;;;;;;;7.13;1.90;;;20.10;46.00;;;;;;4916544;29;20436;-63
2021/11/08 07:10:32;;;;;;;7.40;2.42;;;20.10;46.00;;;;;;4916513;29;20024;-63
2021/11/08 07:12:59;;;;;;;7.45;2.00;;;20.10;46.00;;;;;;4915247;29;20020;-64
2021/11/08 07:15:25;;;;;;;16.98;4.70;;;20.10;46.00;;;;;;4915807;29;20107;-65
2021/11/08 07:17:51;;;;;;;19.63;4.50;;;19.10;44.80;;;;;;4908430;29;20127;-63
2021/11/08 07:20:18;;;;;;;15.50;4.85;;;18.10;46.90;;;;;;4911340;29;20119;-64
2021/11/08 07:22:44;;;;;;;14.88;4.78;;;17.60;47.80;;;;;;4907785;29;20043;-64
2021/11/08 07:25:10;;;;;;;16.58;4.85;;;17.50;48.30;;;;;;4912052;29;20103;-64
2021/11/08 07:27:36;;;;;;;16.55;5.30;;;17.30;48.80;;;;;;4911414;29;20032;-64
2021/11/08 07:30:02;;;;;;;16.60;5.00;;;17.30;48.50;;;;;;4917830;29;20047;-64
2021/11/08 07:32:28;;;;;;;20.05;5.57;;;17.20;48.80;;;;;;4912870;29;20504;-63
2021/11/08 07:34:55;;;;;;;20.83;5.18;;;17.10;49.10;;;;;;4920708;29;20039;-63
2021/11/08 07:37:21;;;;;;;25.73;6.68;;;17.00;49.20;;;;;;4913419;29;20051;-63
2021/11/08 07:39:47;;;;;;;21.33;5.15;;;17.00;49.00;;;;;;4913586;29;20400;-61
2021/11/08 07:42:13;;;;;;;15.13;4.63;;;17.40;48.40;;;;;;4914043;29;20389;-61
2021/11/08 07:44:38;;;;;;;21.25;6.70;;;17.30;48.30;;;;;;4919585;29;20039;-61
2021/11/08 07:47:04;;;;;;;20.02;6.47;;;17.20;48.50;;;;;;4922143;29;20752;-63
2021/11/08 07:49:30;;;;;;;18.88;6.05;;;17.20;48.70;;;;;;4914209;29;20111;-63
2021/11/08 07:51:56;;;;;;;22.95;6.63;;;17.10;48.70;;;;;;4917268;29;20168;-62
2021/11/08 07:54:21;;;;;;;20.23;6.03;;;17.10;48.80;;;;;;4916388;29;20095;-63
2021/11/08 07:56:48;;;;;;;25.77;6.32;;;17.10;48.90;;;;;;4912745;29;20043;-63
2021/11/08 07:59:18;;;;;;;26.27;7.22;;;17.10;48.90;;;;;;4912585;29;20038;-63
2021/11/08 08:01:47;;;;;;;19.60;5.88;;;17.10;49.00;;;;;;4899752;29;20156;-62
2021/11/08 08:04:12;;;;;;;21.17;5.70;;;17.10;49.10;;;;;;4917785;29;20043;-61
2021/11/08 08:06:38;;;;;;;21.15;6.35;;;17.00;49.10;;;;;;4901578;29;20040;-62
2021/11/08 08:09:04;;;;;;;23.38;6.93;;;17.00;49.30;;;;;;4913384;29;20061;-62
2021/11/08 08:11:30;;;;;;;23.95;5.95;;;17.00;49.60;;;;;;4916747;29;20032;-61
2021/11/08 08:13:55;;;;;;;22.52;6.63;;;16.90;49.70;;;;;;4918968;29;20099;-64
2021/11/08 08:16:22;;;;;;;18.30;5.93;;;17.00;49.70;;;;;;4914642;29;20540;-61
2021/11/08 08:18:49;;;;;;;25.67;6.28;;;17.00;49.50;;;;;;4916069;29;20050;-61
2021/11/08 08:21:16;;;;;;;24.50;7.32;;;17.00;49.40;;;;;;4916660;29;20036;-61
2021/11/08 08:23:42;;;;;;;24.00;8.23;;;17.00;49.60;;;;;;4917031;29;20039;-61
2021/11/08 08:26:09;;;;;;;23.67;7.88;;;17.10;49.40;;;;;;4916332;29;20460;-62
2021/11/08 08:28:35;;;;;;;27.83;6.75;;;17.10;49.50;;;;;;4916729;29;20039;-63
2021/11/08 08:31:01;;;;;;;24.35;6.90;;;17.00;49.90;;;;;;4916331;29;20096;-62
2021/11/08 08:33:27;;;;;;;26.40;8.50;;;16.90;50.10;;;;;;4917062;29;20024;-60
2021/11/08 08:35:53;;;;;;;21.10;6.60;;;17.00;50.10;;;;;;4915730;29;20102;-64
2021/11/08 08:38:19;;;;;;;25.35;7.10;;;17.20;49.40;;;;;;4916216;29;20061;-63
2021/11/08 08:40:47;;;;;;;21.88;6.72;;;17.30;49.40;;;;;;4916775;29;20459;-63
2021/11/08 08:43:14;;;;;;;25.65;6.60;;;17.20;49.50;;;;;;4917678;29;20028;-64
2021/11/08 08:45:40;;;;;;;19.73;6.07;;;17.20;49.60;;;;;;4909425;29;20468;-64
2021/11/08 08:48:07;;;;;;;16.73;5.38;;;17.50;49.20;;;;;;4912550;29;20036;-62
2021/11/08 08:50:33;;;;;;;19.73;5.80;;;18.10;48.00;;;;;;4915982;29;20061;-62
2021/11/08 08:52:58;;;;;;;18.90;5.35;;;18.50;47.30;;;;;;4916372;29;20036;-62
2021/11/08 08:55:25;;;;;;;24.08;5.88;;;18.90;46.30;;;;;;4915651;29;20030;-62
2021/11/08 08:57:51;;;;;;;15.10;4.93;;;19.10;46.00;;;;;;4915538;29;20561;-63
2021/11/08 09:00:19;;;;;;;19.08;5.60;;;19.30;45.80;;;;;;4915742;29;20084;-63
2021/11/08 09:02:44;;;;;;;14.43;5.05;;;19.40;45.60;;;;;;4915310;29;20046;-64
2021/11/08 09:05:11;;;;;;;20.38;4.70;;;19.50;45.50;;;;;;4916168;29;20028;-62
2021/11/08 09:07:39;;;;;;;24.88;5.90;;;19.50;45.30;;;;;;4915365;29;20040;-62
2021/11/08 09:10:05;;;;;;;16.27;6.00;;;19.60;45.30;;;;;;4915617;29;20381;-62
2021/11/08 09:12:31;;;;;;;12.55;4.68;;;19.70;45.30;;;;;;4916299;29;20039;-61
2021/11/08 09:14:56;;;;;;;16.40;4.85;;;19.80;45.20;;;;;;4915765;29;20075;-60
2021/11/08 09:17:23;;;;;;;16.67;5.05;;;19.90;45.00;;;;;;4913785;29;20485;-62
2021/11/08 09:19:48;;;;;;;14.05;4.70;;;20.00;44.90;;;;;;4914246;29;20108;-62
2021/11/08 09:22:14;;;;;;;14.57;4.57;;;19.90;45.00;;;;;;4915614;29;20028;-62
2021/11/08 09:24:41;;;;;;;14.30;4.60;;;19.90;45.00;;;;;;4915008;29;20511;-62
2021/11/08 09:27:07;;;;;;;15.77;4.90;;;20.00;45.00;;;;;;4915565;29;20485;-62
2021/11/08 09:29:33;;;;;;;16.52;4.85;;;20.00;45.00;;;;;;4915908;29;20028;-62
2021/11/08 09:31:58;;;;;;;15.32;4.30;;;20.10;44.90;;;;;;4914812;29;20100;-62
2021/11/08 09:34:24;;;;;;;16.27;4.97;;;20.10;45.00;;;;;;4916065;29;20468;-64
2021/11/08 09:36:53;;;;;;;12.57;4.10;;;20.10;44.90;;;;;;4912573;29;20044;-63
2021/11/08 09:39:25;;;;;;;13.13;4.10;;;20.20;45.00;;;;;;4911847;29;20021;-63
2021/11/08 09:41:55;;;;;;;12.13;4.40;;;20.20;44.90;;;;;;4914047;29;20074;-63
2021/11/08 09:44:21;;;;;;;15.70;4.30;;;20.20;44.80;;;;;;4913663;29;20036;-63
2021/11/08 09:46:51;;;;;;;15.02;4.80;;;20.20;44.80;;;;;;4913657;29;20028;-64
2021/11/08 09:49:17;;;;;;;14.95;4.72;;;20.20;45.00;;;;;;4913905;29;20091;-64
2021/11/08 09:51:44;;;;;;;16.23;4.38;;;20.20;45.00;;;;;;4912607;29;20467;-63
2021/11/08 09:54:12;;;;;;;14.73;3.92;;;20.20;45.00;;;;;;4913289;29;20496;-64
2021/11/08 09:56:43;;;;;;;15.02;4.20;;;20.20;44.90;;;;;;4914744;29;20071;-62
2021/11/08 09:59:10;;;;;;;15.60;4.70;;;20.30;45.00;;;;;;4914344;29;20171;-62
2021/11/08 10:01:39;;;;;;;11.93;4.32;;;20.30;44.90;;;;;;4914583;29;20039;-62
2021/11/08 10:04:07;;;;;;;11.73;4.20;;;20.30;44.90;;;;;;4914222;29;20095;-63
2021/11/08 10:06:36;;;;;;;17.13;4.55;;;20.30;45.00;;;;;;4915353;29;20051;-62
2021/11/08 10:09:04;;;;;;;10.82;4.13;;;20.30;45.00;;;;;;4915499;29;20047;-62
2021/11/08 10:11:30;;;;;;;12.18;4.05;;;20.30;45.00;;;;;;4915140;29;21074;-62
2021/11/08 10:13:56;;;;;;;14.00;3.80;;;20.40;44.90;;;;;;4912602;29;20040;-62
2021/11/08 10:16:29;;;;;;;13.15;3.78;;;20.40;44.90;;;;;;4914801;29;20090;-63
2021/11/08 10:18:57;;;;;;;10.85;4.18;;;20.50;44.80;;;;;;4913648;29;20040;-62
2021/11/08 10:21:38;;;;;;;12.63;4.43;;;20.50;44.80;;;;;;4915015;29;20032;-62
2021/11/08 10:24:08;;;;;;;12.05;4.25;;;20.50;44.70;;;;;;4914120;29;20108;-62
2021/11/08 10:26:37;;;;;;;10.85;4.03;;;20.60;44.70;;;;;;4914704;29;20366;-64
2021/11/08 10:29:10;;;;;;;12.77;4.28;;;20.60;44.80;;;;;;4911793;29;20028;-64
2021/11/08 10:31:43;;;;;;;13.90;4.68;;;20.60;44.70;;;;;;4907267;29;20139;-62
2021/11/08 10:34:11;;;;;;;12.73;4.22;;;20.60;44.80;;;;;;4905284;29;20028;-63
2021/11/08 10:36:38;;;;;;;11.88;4.00;;;20.60;45.10;;;;;;4906310;29;20056;-62
2021/11/08 10:39:06;;;;;;;14.15;4.72;;;20.50;45.10;;;;;;4906937;29;20095;-62
2021/11/08 10:41:36;;;;;;;12.43;3.45;;;20.50;45.30;;;;;;4929545;29;20087;-63
2021/11/08 10:44:10;;;;;;;10.82;4.63;;;20.50;45.50;;;;;;4929177;29;20036;-64
2021/11/08 10:46:40;;;;;;;;;;;20.50;45.60;;;;;;4915710;29;20099;-63
2021/11/08 10:49:17;;;;;;;13.13;3.70;;;20.50;45.60;;;;;;4914727;29;19911;-63
2021/11/08 10:51:49;;;;;;;11.07;3.90;;;20.50;45.60;;;;;;4909302;29;20063;-63
2021/11/08 10:54:29;;;;;;;9.77;3.80;;;20.50;45.70;;;;;;4910690;29;20056;-62
2021/11/08 10:57:05;;;;;;;11.50;4.00;;;20.50;45.80;;;;;;4913792;29;20040;-63
2021/11/08 10:59:44;;;;;;;11.52;4.10;;;20.50;45.80;;;;;;4915396;29;20030;-61
2021/11/08 11:02:13;;;;;;;11.07;3.80;;;20.50;45.90;;;;;;4915569;29;20107;-61
2021/11/08 11:04:45;;;;;;;12.02;3.80;;;20.50;45.90;;;;;;4914801;29;20354;-64
2021/11/08 11:07:20;;;;;;;15.57;4.60;;;20.50;46.00;;;;;;4915554;29;20024;-64
2021/11/08 11:09:46;;;;;;;12.60;3.88;;;20.50;46.10;;;;;;4913736;29;20025;-65
2021/11/08 11:12:25;;;;;;;13.25;3.42;;;20.50;46.20;;;;;;4915232;29;20032;-65
2021/11/08 11:14:54;;;;;;;11.20;3.97;;;20.50;46.20;;;;;;4911239;29;20036;-64
2021/11/08 11:17:32;;;;;;;12.13;3.85;;;20.50;46.20;;;;;;4905624;29;20108;-64
2021/11/08 11:20:12;;;;;;;10.88;3.53;;;20.50;46.30;;;;;;4913005;29;20036;-65
2021/11/08 11:22:43;;;;;;;9.63;3.65;;;20.50;46.30;;;;;;4905952;29;20136;-64
2021/11/08 11:25:11;;;;;;;11.13;3.85;;;20.50;46.40;;;;;;4907603;29;20482;-63
2021/11/08 11:27:49;;;;;;;10.85;3.38;;;20.50;46.50;;;;;;4913610;29;20452;-63
2021/11/08 11:30:41;;;;;;;12.20;3.33;;;20.50;46.50;;;;;;4913822;29;20044;-63
2021/11/08 11:33:16;;;;;;;13.18;3.58;;;20.50;46.50;;;;;;4917858;29;20036;-62
2021/11/08 11:35:50;;;;;;;10.07;3.65;;;20.50;46.60;;;;;;4918469;29;20028;-63
2021/11/08 11:38:19;;;;;;;9.38;3.08;;;20.50;46.60;;;;;;4918931;29;20092;-63
2021/11/08 11:40:55;;;;;;;14.32;3.28;;;20.50;46.60;;;;;;4918313;29;20392;-62
2021/11/08 11:43:37;;;;;;;10.73;3.67;;;20.50;46.70;;;;;;4918036;29;20020;-63
2021/11/08 11:46:06;;;;;;;9.65;3.75;;;20.50;46.70;;;;;;4918396;29;20039;-62
2021/11/08 11:48:34;;;;;;;10.23;3.25;;;20.50;46.80;;;;;;4917413;29;20064;-61
2021/11/08 11:50:59;;;;;;;12.43;2.95;;;20.50;46.90;;;;;;4904459;29;20029;-61
2021/11/08 11:53:26;;;;;;;12.02;3.70;;;20.50;47.00;;;;;;4905104;29;20038;-62
2021/11/08 11:55:53;;;;;;;13.52;3.70;;;20.50;46.80;;;;;;4917317;29;20365;-62
2021/11/08 11:58:20;;;;;;;9.27;3.28;;;20.50;46.80;;;;;;4917532;29;20032;-61
2021/11/08 12:00:47;;;;;;;10.15;3.13;;;20.50;46.90;;;;;;4917401;29;20107;-61
2021/11/08 12:03:14;;;;;;;11.52;3.58;;;20.50;46.70;;;;;;4917014;29;20043;-63
2021/11/08 12:05:44;;;;;;;11.57;3.70;;;20.50;46.90;;;;;;4917080;29;20092;-63
2021/11/08 12:08:11;;;;;;;9.10;3.20;;;20.50;46.70;;;;;;4909901;29;20035;-63
2021/11/08 12:10:48;;;;;;;10.00;3.47;;;20.40;46.70;;;;;;4915076;29;20107;-62
2021/11/08 12:13:34;;;;;;;8.95;2.88;;;20.40;46.70;;;;;;4914758;29;20028;-62
2021/11/08 12:16:16;;;;;;;9.25;3.20;;;20.50;46.70;;;;;;4899333;29;20128;-62
2021/11/08 12:18:45;;;;;;;10.43;3.58;;;20.50;46.70;;;;;;4913933;29;20032;-61
2021/11/08 12:21:26;;;;;;;9.00;3.13;;;20.40;46.70;;;;;;4917228;29;20348;-63
2021/11/08 12:23:54;;;;;;;12.15;3.70;;;20.50;46.90;;;;;;4915755;29;20059;-63
2021/11/08 12:26:22;;;;;;;10.52;3.20;;;20.50;46.80;;;;;;4916562;29;20126;-62
2021/11/08 12:28:48;;;;;;;10.90;3.03;;;20.50;46.70;;;;;;4915619;29;20028;-62
2021/11/08 12:31:22;;;;;;;14.43;3.42;;;20.50;46.80;;;;;;4916731;29;20056;-61
2021/11/08 12:34:07;;;;;;;9.50;3.13;;;20.50;47.00;;;;;;4916325;29;20028;-62
2021/11/08 12:36:32;;;;;;;9.30;3.45;;;20.50;46.90;;;;;;4915429;29;20632;-61
2021/11/08 12:39:08;;;;;;;8.20;3.50;;;20.50;46.80;;;;;;4916365;29;20049;-61
2021/11/08 12:41:47;;;;;;;9.73;2.92;;;20.50;46.90;;;;;;4914391;29;20036;-62
2021/11/08 12:44:16;;;;;;;10.63;3.33;;;20.50;46.80;;;;;;4910302;29;20385;-60
2021/11/08 12:46:48;;;;;;;10.13;3.20;;;20.50;46.80;;;;;;4921315;29;20035;-62
2021/11/08 12:49:36;;;;;;;8.02;2.70;;;20.50;46.70;;;;;;4916965;29;20068;-62
2021/11/08 12:52:05;;;;;;;9.98;2.90;;;20.50;46.80;;;;;;4900302;29;20051;-64
2021/11/08 12:54:43;;;;;;;9.85;2.75;;;20.50;46.80;;;;;;4915249;29;20028;-61
2021/11/08 12:57:10;;;;;;;11.93;3.60;;;20.50;46.80;;;;;;4913948;29;20044;-62
2021/11/08 12:59:56;;;;;;;9.52;3.25;;;20.50;46.90;;;;;;4916462;29;20538;-61
2021/11/08 13:02:28;;;;;;;8.18;3.10;;;20.50;46.90;;;;;;4915224;29;20032;-62
2021/11/08 13:04:57;;;;;;;11.18;3.33;;;20.50;46.90;;;;;;4916108;29;20032;-60
2021/11/08 13:07:27;;;;;;;9.95;3.25;;;20.60;46.90;;;;;;4914781;29;20064;-61
2021/11/08 13:09:55;;;;;;;10.82;3.10;;;20.60;46.90;;;;;;4914621;29;20032;-61
2021/11/08 13:12:29;;;;;;;14.77;3.40;;;20.70;46.90;;;;;;4916774;29;20051;-62
2021/11/08 13:15:22;;;;;;;11.10;3.33;;;20.60;47.20;;;;;;4914735;29;20476;-62
2021/11/08 13:18:05;;;;;;;8.23;2.88;;;20.60;47.30;;;;;;4910677;29;20061;-62
2021/11/08 13:20:39;;;;;;;11.60;3.03;;;20.60;47.50;;;;;;4908606;29;20056;-60
2021/11/08 13:23:14;;;;;;;8.98;3.00;;;20.60;47.60;;;;;;4903823;29;20046;-61
2021/11/08 13:25:49;;;;;;;8.60;3.15;;;20.60;47.80;;;;;;4930186;29;20095;-61
2021/11/08 13:28:18;;;;;;;8.10;2.78;;;20.60;48.00;;;;;;4914346;29;20464;-62
2021/11/08 13:30:48;;;;;;;8.52;2.92;;;20.60;48.00;;;;;;4915166;29;20060;-61
2021/11/08 13:33:20;;;;;;;10.80;3.60;;;20.60;48.20;;;;;;4915511;29;20024;-61
2021/11/08 13:35:47;;;;;;;17.90;3.33;;;20.50;48.30;;;;;;4916428;29;20036;-61
2021/11/08 13:38:25;;;;;;;10.25;2.97;;;20.50;48.30;;;;;;4915602;29;20036;-61
2021/11/08 13:40:54;;;;;;;10.25;3.17;;;20.60;48.40;;;;;;4915473;29;20032;-60
2021/11/08 13:43:23;;;;;;;10.35;2.70;;;20.50;48.30;;;;;;4916327;29;20342;-60
2021/11/08 13:45:54;;;;;;;9.60;3.10;;;20.50;48.40;;;;;;4916081;29;20028;-62
2021/11/08 13:48:32;;;;;;;16.95;3.88;;;20.50;48.60;;;;;;4914762;29;20059;-62
2021/11/08 13:51:07;;;;;;;9.68;2.65;;;20.60;48.50;;;;;;4915946;29;20032;-62
2021/11/08 13:53:38;;;;;;;8.70;3.05;;;20.60;48.60;;;;;;4916469;29;20036;-62
2021/11/08 13:56:09;;;;;;;16.15;3.55;;;20.50;48.80;;;;;;4917002;29;20507;-61
2021/11/08 13:58:44;;;;;;;9.93;2.83;;;20.60;48.80;;;;;;4916929;29;20031;-61
2021/11/08 14:01:10;;;;;;;9.45;2.53;;;20.60;48.80;;;;;;4916939;29;20547;-61
2021/11/08 14:03:44;;;;;;;11.05;3.15;;;20.50;48.80;;;;;;4905790;29;20139;-61
2021/11/08 14:06:12;;;;;;;;;;;20.60;48.90;;;;;;4913354;29;20024;-61
2021/11/08 14:08:47;;;;;;;9.18;2.65;;;20.60;48.80;;;;;;4909999;29;19919;-62
2021/11/08 14:11:13;;;;;;;8.65;3.00;;;20.60;48.90;;;;;;4913361;29;20040;-63
2021/11/08 14:13:42;;;;;;;11.75;2.75;;;20.60;48.90;;;;;;4911790;29;21547;-61
2021/11/08 14:16:10;;;;;;;8.80;2.97;;;20.60;49.00;;;;;;4910430;29;20027;-62
2021/11/08 14:18:37;;;;;;;8.07;2.65;;;20.60;49.00;;;;;;4907966;29;20031;-62
2021/11/08 14:21:11;;;;;;;9.27;2.95;;;20.60;49.00;;;;;;4902115;29;20032;-61
2021/11/08 14:23:39;;;;;;;9.07;2.70;;;20.60;49.10;;;;;;4916149;29;20032;-61
2021/11/08 14:26:19;;;;;;;11.63;3.15;;;20.60;49.10;;;;;;4913280;29;20024;-61
2021/11/08 14:28:47;;;;;;;7.70;2.45;;;20.60;49.10;;;;;;4912373;29;20031;-62
2021/11/08 14:31:32;;;;;;;6.50;2.17;;;20.60;49.20;;;;;;4916336;29;20067;-62
2021/11/08 14:34:02;;;;;;;8.57;2.50;;;20.60;49.40;;;;;;4914828;29;20091;-62
2021/11/08 14:36:32;;;;;;;14.50;2.83;;;20.60;49.30;;;;;;4916404;29;20376;-61
2021/11/08 14:39:01;;;;;;;8.77;2.67;;;20.60;49.20;;;;;;4908432;29;20140;-62
2021/11/08 14:41:33;;;;;;;8.55;2.45;;;20.60;49.30;;;;;;4901816;29;20032;-62